sensor_id;sensor_type;location;lat;lon;timestamp;pressure;altitude;pressure_sealevel;temperature;humidity
28167;BME280;15455;53.376;-6.262;2023-08-08T00:00:57;101403.13;;;12.79;100.00
28167;BME280;15455;53.376;-6.262;2023-08-08T00:03:44;101404.88;;;12.80;100.00
28167;BME280;15455;53.376;-6.262;2023-08-08T00:06:29;101406.59;;;12.81;100.00
28167;BME280;15455;53.376;-6.262;2023-08-08T00:09:15;101403.13;;;12.85;100.00
28167;BME280;15455;53.376;-6.262;2023-08-08T00:12:01;101399.63;;;12.84;100.00
28167;BME280;15455;53.376;-6.262;2023-08-08T00:14:46;101391.75;;;12.88;100.00
28167;BME280;15455;53.376;-6.262;2023-08-08T00:17:32;101390.91;;;12.90;100.00
28167;BME280;15455;53.376;-6.262;2023-08-08T00:20:17;101390.88;;;12.92;100.00
28167;BME280;15455;53.376;-6.262;2023-08-08T00:23:03;101380.41;;;12.92;100.00
28167;BME280;15455;53.376;-6.262;2023-08-08T00:25:49;101371.69;;;12.93;100.00
28167;BME280;15455;53.376;-6.262;2023-08-08T00:28:36;101358.59;;;12.93;100.00
28167;BME280;15455;53.376;-6.262;2023-08-08T00:31:21;101366.44;;;12.94;100.00
28167;BME280;15455;53.376;-6.262;2023-08-08T00:34:07;101368.16;;;12.95;100.00
28167;BME280;15455;53.376;-6.262;2023-08-08T00:36:52;101372.53;;;12.98;100.00
28167;BME280;15455;53.376;-6.262;2023-08-08T00:39:38;101370.75;;;12.98;100.00
28167;BME280;15455;53.376;-6.262;2023-08-08T00:42:24;101365.56;;;13.00;100.00
28167;BME280;15455;53.376;-6.262;2023-08-08T00:45:09;101369.91;;;13.01;100.00
28167;BME280;15455;53.376;-6.262;2023-08-08T00:47:55;101373.41;;;13.03;100.00
28167;BME280;15455;53.376;-6.262;2023-08-08T00:50:43;101365.53;;;13.03;100.00
28167;BME280;15455;53.376;-6.262;2023-08-08T00:53:30;101365.53;;;13.03;100.00
28167;BME280;15455;53.376;-6.262;2023-08-08T00:56:17;101359.38;;;13.06;100.00
28167;BME280;15455;53.376;-6.262;2023-08-08T00:59:02;101349.81;;;13.06;100.00
28167;BME280;15455;53.376;-6.262;2023-08-08T01:01:49;101342.81;;;13.07;100.00
28167;BME280;15455;53.376;-6.262;2023-08-08T01:04:35;101350.66;;;13.07;100.00
28167;BME280;15455;53.376;-6.262;2023-08-08T01:07:47;101351.56;;;13.07;100.00
28167;BME280;15455;53.376;-6.262;2023-08-08T01:10:39;101347.19;;;13.06;100.00
28167;BME280;15455;53.376;-6.262;2023-08-08T01:13:27;101348.03;;;13.07;100.00
28167;BME280;15455;53.376;-6.262;2023-08-08T01:16:15;101349.81;;;13.06;100.00
28167;BME280;15455;53.376;-6.262;2023-08-08T01:19:04;101358.50;;;13.08;100.00
28167;BME280;15455;53.376;-6.262;2023-08-08T01:21:53;101353.28;;;13.08;100.00
28167;BME280;15455;53.376;-6.262;2023-08-08T01:24:41;101351.56;;;13.07;100.00
28167;BME280;15455;53.376;-6.262;2023-08-08T01:27:29;101357.66;;;13.09;100.00
28167;BME280;15455;53.376;-6.262;2023-08-08T01:30:14;101357.66;;;13.09;100.00
28167;BME280;15455;53.376;-6.262;2023-08-08T01:33:02;101358.50;;;13.08;100.00
28167;BME280;15455;53.376;-6.262;2023-08-08T01:35:54;101354.16;;;13.09;100.00
28167;BME280;15455;53.376;-6.262;2023-08-08T01:38:43;101351.56;;;13.07;100.00
28167;BME280;15455;53.376;-6.262;2023-08-08T01:41:33;101358.53;;;13.07;100.00
28167;BME280;15455;53.376;-6.262;2023-08-08T01:44:20;101347.19;;;13.05;100.00
28167;BME280;15455;53.376;-6.262;2023-08-08T01:47:10;101353.28;;;13.03;100.00
28167;BME280;15455;53.376;-6.262;2023-08-08T01:49:55;101354.16;;;13.04;100.00
28167;BME280;15455;53.376;-6.262;2023-08-08T01:52:41;101344.56;;;13.03;100.00
28167;BME280;15455;53.376;-6.262;2023-08-08T01:55:27;101351.53;;;13.04;100.00
28167;BME280;15455;53.376;-6.262;2023-08-08T01:58:13;101354.16;;;13.02;100.00
28167;BME280;15455;53.376;-6.262;2023-08-08T02:00:58;101363.78;;;13.02;100.00
28167;BME280;15455;53.376;-6.262;2023-08-08T02:03:45;101355.94;;;13.02;100.00
28167;BME280;15455;53.376;-6.262;2023-08-08T02:06:30;101344.59;;;13.00;100.00
28167;BME280;15455;53.376;-6.262;2023-08-08T02:09:15;101341.09;;;12.98;100.00
28167;BME280;15455;53.376;-6.262;2023-08-08T02:12:04;101334.09;;;12.97;100.00
28167;BME280;15455;53.376;-6.262;2023-08-08T02:14:50;101341.09;;;12.96;100.00
28167;BME280;15455;53.376;-6.262;2023-08-08T02:17:38;101336.72;;;12.95;100.00
28167;BME280;15455;53.376;-6.262;2023-08-08T02:20:23;101327.16;;;12.93;100.00
28167;BME280;15455;53.376;-6.262;2023-08-08T02:23:10;101328.00;;;12.90;100.00
28167;BME280;15455;53.376;-6.262;2023-08-08T02:25:55;101323.66;;;12.86;100.00
28167;BME280;15455;53.376;-6.262;2023-08-08T02:28:41;101316.69;;;12.80;100.00
28167;BME280;15455;53.376;-6.262;2023-08-08T02:31:26;101307.97;;;12.74;100.00
28167;BME280;15455;53.376;-6.262;2023-08-08T02:34:12;101314.09;;;12.66;100.00
28167;BME280;15455;53.376;-6.262;2023-08-08T02:36:57;101310.63;;;12.58;100.00
28167;BME280;15455;53.376;-6.262;2023-08-08T02:39:43;101318.47;;;12.50;100.00
28167;BME280;15455;53.376;-6.262;2023-08-08T02:42:29;101316.75;;;12.43;100.00
28167;BME280;15455;53.376;-6.262;2023-08-08T02:45:15;101316.75;;;12.37;100.00
28167;BME280;15455;53.376;-6.262;2023-08-08T02:48:01;101308.00;;;12.32;100.00
28167;BME280;15455;53.376;-6.262;2023-08-08T02:50:47;101311.53;;;12.26;100.00
28167;BME280;15455;53.376;-6.262;2023-08-08T02:53:33;101314.13;;;12.25;100.00
28167;BME280;15455;53.376;-6.262;2023-08-08T02:56:19;101310.66;;;12.21;100.00
28167;BME280;15455;53.376;-6.262;2023-08-08T02:59:07;101317.63;;;12.18;100.00
28167;BME280;15455;53.376;-6.262;2023-08-08T03:01:52;101319.38;;;12.15;100.00
28167;BME280;15455;53.376;-6.262;2023-08-08T03:04:39;101315.00;;;12.18;100.00
28167;BME280;15455;53.376;-6.262;2023-08-08T03:07:26;101311.50;;;12.19;100.00
28167;BME280;15455;53.376;-6.262;2023-08-08T03:10:12;101307.19;;;12.19;100.00
28167;BME280;15455;53.376;-6.262;2023-08-08T03:12:59;101299.31;;;12.19;100.00
28167;BME280;15455;53.376;-6.262;2023-08-08T03:15:45;101302.81;;;12.20;100.00
28167;BME280;15455;53.376;-6.262;2023-08-08T03:18:31;101303.66;;;12.17;100.00
28167;BME280;15455;53.376;-6.262;2023-08-08T03:21:16;101300.19;;;12.15;100.00
28167;BME280;15455;53.376;-6.262;2023-08-08T03:24:02;101306.28;;;12.14;100.00
28167;BME280;15455;53.376;-6.262;2023-08-08T03:26:48;101308.91;;;12.08;100.00
28167;BME280;15455;53.376;-6.262;2023-08-08T03:29:34;101301.94;;;12.05;100.00
28167;BME280;15455;53.376;-6.262;2023-08-08T03:32:19;101308.91;;;12.06;100.00
28167;BME280;15455;53.376;-6.262;2023-08-08T03:35:05;101310.63;;;12.09;100.00
28167;BME280;15455;53.376;-6.262;2023-08-08T03:37:52;101309.78;;;12.11;100.00
28167;BME280;15455;53.376;-6.262;2023-08-08T03:40:37;101316.75;;;12.15;100.00
28167;BME280;15455;53.376;-6.262;2023-08-08T03:43:23;101320.25;;;12.21;100.00
28167;BME280;15455;53.376;-6.262;2023-08-08T03:46:09;101321.97;;;12.25;100.00
28167;BME280;15455;53.376;-6.262;2023-08-08T03:48:56;101320.25;;;12.25;100.00
28167;BME280;15455;53.376;-6.262;2023-08-08T03:51:41;101322.88;;;12.27;100.00
28167;BME280;15455;53.376;-6.262;2023-08-08T03:54:27;101312.41;;;12.25;100.00
28167;BME280;15455;53.376;-6.262;2023-08-08T03:57:13;101308.91;;;12.22;100.00
28167;BME280;15455;53.376;-6.262;2023-08-08T03:59:58;101310.66;;;12.16;100.00
28167;BME280;15455;53.376;-6.262;2023-08-08T04:02:44;101304.53;;;12.14;100.00
28167;BME280;15455;53.376;-6.262;2023-08-08T04:05:29;101301.91;;;12.11;100.00
28167;BME280;15455;53.376;-6.262;2023-08-08T04:08:15;101295.84;;;12.05;100.00
28167;BME280;15455;53.376;-6.262;2023-08-08T04:11:01;101304.56;;;11.97;100.00
28167;BME280;15455;53.376;-6.262;2023-08-08T04:13:47;101292.28;;;11.86;100.00
28167;BME280;15455;53.376;-6.262;2023-08-08T04:16:32;101288.78;;;11.71;100.00
28167;BME280;15455;53.376;-6.262;2023-08-08T04:19:18;101287.91;;;11.60;100.00
28167;BME280;15455;53.376;-6.262;2023-08-08T04:22:03;101277.41;;;11.47;100.00
28167;BME280;15455;53.376;-6.262;2023-08-08T04:24:50;101273.88;;;11.35;100.00
28167;BME280;15455;53.376;-6.262;2023-08-08T04:27:35;101272.97;;;11.22;100.00
28167;BME280;15455;53.376;-6.262;2023-08-08T04:30:20;101270.34;;;11.06;100.00
28167;BME280;15455;53.376;-6.262;2023-08-08T04:33:06;101265.03;;;10.92;100.00
28167;BME280;15455;53.376;-6.262;2023-08-08T04:35:54;101264.13;;;10.84;100.00
28167;BME280;15455;53.376;-6.262;2023-08-08T04:38:39;101255.41;;;10.77;100.00
28167;BME280;15455;53.376;-6.262;2023-08-08T04:41:25;101259.69;;;10.68;100.00
28167;BME280;15455;53.376;-6.262;2023-08-08T04:44:10;101257.91;;;10.56;100.00
28167;BME280;15455;53.376;-6.262;2023-08-08T04:46:56;101249.13;;;10.46;100.00
28167;BME280;15455;53.376;-6.262;2023-08-08T04:49:41;101259.50;;;10.35;100.00
28167;BME280;15455;53.376;-6.262;2023-08-08T04:52:27;101260.38;;;10.36;100.00
28167;BME280;15455;53.376;-6.262;2023-08-08T04:55:12;101271.63;;;10.32;100.00
28167;BME280;15455;53.376;-6.262;2023-08-08T04:57:58;101260.28;;;10.30;100.00
28167;BME280;15455;53.376;-6.262;2023-08-08T05:00:44;101252.41;;;10.20;100.00
28167;BME280;15455;53.376;-6.262;2023-08-08T05:03:30;101249.69;;;10.09;100.00
28167;BME280;15455;53.376;-6.262;2023-08-08T05:06:15;101254.00;;;10.00;100.00
28167;BME280;15455;53.376;-6.262;2023-08-08T05:09:01;101248.69;;;9.92;100.00
28167;BME280;15455;53.376;-6.262;2023-08-08T05:11:46;101246.03;;;9.83;100.00
28167;BME280;15455;53.376;-6.262;2023-08-08T05:14:32;101252.13;;;9.85;100.00
28167;BME280;15455;53.376;-6.262;2023-08-08T05:17:17;101256.47;;;9.86;100.00
28167;BME280;15455;53.376;-6.262;2023-08-08T05:20:03;101250.31;;;9.78;100.00
28167;BME280;15455;53.376;-6.262;2023-08-08T05:22:49;101246.81;;;9.71;100.00
28167;BME280;15455;53.376;-6.262;2023-08-08T05:25:34;101249.31;;;9.65;100.00
28167;BME280;15455;53.376;-6.262;2023-08-08T05:28:20;101255.44;;;9.67;100.00
28167;BME280;15455;53.376;-6.262;2023-08-08T05:31:06;101269.41;;;9.73;100.00
28167;BME280;15455;53.376;-6.262;2023-08-08T05:33:52;101265.91;;;9.73;100.00
28167;BME280;15455;53.376;-6.262;2023-08-08T05:36:38;101263.31;;;9.74;100.00
28167;BME280;15455;53.376;-6.262;2023-08-08T05:39:23;101264.22;;;9.75;100.00
28167;BME280;15455;53.376;-6.262;2023-08-08T05:42:08;101254.91;;;10.06;100.00
28167;BME280;15455;53.376;-6.262;2023-08-08T05:44:54;101265.50;;;10.30;100.00
28167;BME280;15455;53.376;-6.262;2023-08-08T05:47:39;101270.72;;;10.31;100.00
28167;BME280;15455;53.376;-6.262;2023-08-08T05:50:28;101275.94;;;10.31;100.00
28167;BME280;15455;53.376;-6.262;2023-08-08T05:53:14;101275.06;;;10.29;100.00
28167;BME280;15455;53.376;-6.262;2023-08-08T05:56:00;101282.91;;;10.29;100.00
28167;BME280;15455;53.376;-6.262;2023-08-08T05:58:45;101275.94;;;10.28;100.00
28167;BME280;15455;53.376;-6.262;2023-08-08T06:01:31;101275.06;;;10.28;100.00
28167;BME280;15455;53.376;-6.262;2023-08-08T06:04:18;101276.00;;;10.33;100.00
28167;BME280;15455;53.376;-6.262;2023-08-08T06:07:03;101281.28;;;10.43;100.00
28167;BME280;15455;53.376;-6.262;2023-08-08T06:09:53;101282.22;;;10.52;100.00
28167;BME280;15455;53.376;-6.262;2023-08-08T06:12:38;101269.19;;;10.56;100.00
28167;BME280;15455;53.376;-6.262;2023-08-08T06:15:24;101261.41;;;10.61;100.00
28167;BME280;15455;53.376;-6.262;2023-08-08T06:18:09;101276.22;;;10.67;100.00
28167;BME280;15455;53.376;-6.262;2023-08-08T06:20:55;101276.25;;;10.73;100.00
28167;BME280;15455;53.376;-6.262;2023-08-08T06:23:40;101273.69;;;10.82;100.00
28167;BME280;15455;53.376;-6.262;2023-08-08T06:26:25;101266.75;;;10.89;100.00
28167;BME280;15455;53.376;-6.262;2023-08-08T06:29:11;101272.03;;;10.97;100.00
28167;BME280;15455;53.376;-6.262;2023-08-08T06:31:57;101287.72;;;11.10;100.00
28167;BME280;15455;53.376;-6.262;2023-08-08T06:34:43;101286.06;;;11.26;100.00
28167;BME280;15455;53.376;-6.262;2023-08-08T06:37:29;101286.97;;;11.39;100.00
28167;BME280;15455;53.376;-6.262;2023-08-08T06:40:15;101280.88;;;11.50;100.00
28167;BME280;15455;53.376;-6.262;2023-08-08T06:43:01;101287.03;;;11.64;100.00
28167;BME280;15455;53.376;-6.262;2023-08-08T06:45:46;101315.81;;;11.84;100.00
28167;BME280;15455;53.376;-6.262;2023-08-08T06:48:32;101309.78;;;11.96;100.00
28167;BME280;15455;53.376;-6.262;2023-08-08T06:51:18;101297.59;;;12.10;100.00
28167;BME280;15455;53.376;-6.262;2023-08-08T06:54:03;101296.72;;;12.19;100.00
28167;BME280;15455;53.376;-6.262;2023-08-08T06:56:49;101292.31;;;12.24;100.00
28167;BME280;15455;53.376;-6.262;2023-08-08T06:59:34;101295.81;;;12.36;100.00
28167;BME280;15455;53.376;-6.262;2023-08-08T07:02:20;101301.91;;;12.47;100.00
28167;BME280;15455;53.376;-6.262;2023-08-08T07:05:06;101290.53;;;12.57;100.00
28167;BME280;15455;53.376;-6.262;2023-08-08T07:07:52;101291.41;;;12.65;100.00
28167;BME280;15455;53.376;-6.262;2023-08-08T07:10:38;101288.75;;;12.76;100.00
28167;BME280;15455;53.376;-6.262;2023-08-08T07:13:24;101292.19;;;12.91;100.00
28167;BME280;15455;53.376;-6.262;2023-08-08T07:16:09;101287.81;;;13.00;100.00
28167;BME280;15455;53.376;-6.262;2023-08-08T07:18:55;101281.59;;;13.18;100.00
28167;BME280;15455;53.376;-6.262;2023-08-08T07:21:41;101273.66;;;13.38;100.00
28167;BME280;15455;53.376;-6.262;2023-08-08T07:24:27;101267.44;;;13.58;100.00
28167;BME280;15455;53.376;-6.262;2023-08-08T07:27:14;101261.16;;;13.79;100.00
28167;BME280;15455;53.376;-6.262;2023-08-08T07:29:59;101254.03;;;13.94;100.00
28167;BME280;15455;53.376;-6.262;2023-08-08T07:32:46;101243.47;;;14.04;100.00
28167;BME280;15455;53.376;-6.262;2023-08-08T07:35:32;101242.59;;;14.07;100.00
28167;BME280;15455;53.376;-6.262;2023-08-08T07:38:18;101247.81;;;14.09;100.00
28167;BME280;15455;53.376;-6.262;2023-08-08T07:41:04;101247.81;;;14.09;100.00
28167;BME280;15455;53.376;-6.262;2023-08-08T07:43:49;101240.84;;;14.06;100.00
28167;BME280;15455;53.376;-6.262;2023-08-08T07:46:35;101243.44;;;14.09;100.00
28167;BME280;15455;53.376;-6.262;2023-08-08T07:49:20;101250.38;;;14.15;100.00
28167;BME280;15455;53.376;-6.262;2023-08-08T07:52:06;101251.19;;;14.23;100.00
28167;BME280;15455;53.376;-6.262;2023-08-08T07:54:53;101265.94;;;14.35;100.00
28167;BME280;15455;53.376;-6.262;2023-08-08T07:57:38;101264.09;;;14.46;100.00
28167;BME280;15455;53.376;-6.262;2023-08-08T08:00:24;101262.19;;;14.62;100.00
28167;BME280;15455;53.376;-6.262;2023-08-08T08:03:10;101263.66;;;14.85;100.00
28167;BME280;15455;53.376;-6.262;2023-08-08T08:05:55;101247.72;;;15.00;100.00
28167;BME280;15455;53.376;-6.262;2023-08-08T08:08:41;101251.06;;;15.13;100.00
28167;BME280;15455;53.376;-6.262;2023-08-08T08:11:26;101243.94;;;15.23;100.00
28167;BME280;15455;53.376;-6.262;2023-08-08T08:14:12;101229.81;;;15.30;100.00
28167;BME280;15455;53.376;-6.262;2023-08-08T08:16:57;101233.16;;;15.41;100.00
28167;BME280;15455;53.376;-6.262;2023-08-08T08:19:43;101226.81;;;15.55;100.00
28167;BME280;15455;53.376;-6.262;2023-08-08T08:22:29;101219.63;;;15.65;100.00
28167;BME280;15455;53.376;-6.262;2023-08-08T08:25:14;101214.28;;;15.71;100.00
28167;BME280;15455;53.376;-6.262;2023-08-08T08:28:00;101201.00;;;15.77;100.00
28167;BME280;15455;53.376;-6.262;2023-08-08T08:30:45;101201.78;;;15.85;100.00
28167;BME280;15455;53.376;-6.262;2023-08-08T08:33:31;101194.63;;;15.93;100.00
28167;BME280;15455;53.376;-6.262;2023-08-08T08:36:16;101189.09;;;16.07;100.00
28167;BME280;15455;53.376;-6.262;2023-08-08T08:39:02;101196.75;;;16.21;100.00
28167;BME280;15455;53.376;-6.262;2023-08-08T08:41:49;101207.03;;;16.35;100.00
28167;BME280;15455;53.376;-6.262;2023-08-08T08:44:39;101201.59;;;16.44;100.00
28167;BME280;15455;53.376;-6.262;2023-08-08T08:47:25;101201.28;;;16.60;100.00
28167;BME280;15455;53.376;-6.262;2023-08-08T08:50:18;101200.88;;;16.80;100.00
28167;BME280;15455;53.376;-6.262;2023-08-08T08:53:03;101199.69;;;16.95;100.00
28167;BME280;15455;53.376;-6.262;2023-08-08T08:55:50;101203.78;;;17.08;100.00
28167;BME280;15455;53.376;-6.262;2023-08-08T08:58:36;101195.69;;;17.17;100.00
28167;BME280;15455;53.376;-6.262;2023-08-08T09:01:22;101197.25;;;17.26;100.00
28167;BME280;15455;53.376;-6.262;2023-08-08T09:04:09;101204.19;;;17.30;100.00
28167;BME280;15455;53.376;-6.262;2023-08-08T09:06:55;101191.00;;;17.30;100.00
28167;BME280;15455;53.376;-6.262;2023-08-08T09:09:43;101183.22;;;17.24;100.00
28167;BME280;15455;53.376;-6.262;2023-08-08T09:12:30;101196.38;;;17.26;100.00
28167;BME280;15455;53.376;-6.262;2023-08-08T09:15:16;101183.28;;;17.21;100.00
28167;BME280;15455;53.376;-6.262;2023-08-08T09:18:02;101182.31;;;17.25;100.00
28167;BME280;15455;53.376;-6.262;2023-08-08T09:20:48;101189.97;;;17.38;100.00
28167;BME280;15455;53.376;-6.262;2023-08-08T09:23:36;101184.50;;;17.45;100.00
28167;BME280;15455;53.376;-6.262;2023-08-08T09:26:23;101188.63;;;17.56;100.00
28167;BME280;15455;53.376;-6.262;2023-08-08T09:29:11;101178.81;;;17.62;100.00
28167;BME280;15455;53.376;-6.262;2023-08-08T09:31:57;101187.47;;;17.67;100.00
28167;BME280;15455;53.376;-6.262;2023-08-08T09:34:43;101191.72;;;17.73;100.00
28167;BME280;15455;53.376;-6.262;2023-08-08T09:37:29;101183.59;;;17.81;100.00
28167;BME280;15455;53.376;-6.262;2023-08-08T09:40:15;101192.34;;;17.83;100.00
28167;BME280;15455;53.376;-6.262;2023-08-08T09:43:01;101172.22;;;17.79;100.00
28167;BME280;15455;53.376;-6.262;2023-08-08T09:45:47;101169.06;;;17.64;100.00
28167;BME280;15455;53.376;-6.262;2023-08-08T09:48:33;101182.59;;;17.50;100.00
28167;BME280;15455;53.376;-6.262;2023-08-08T09:51:20;101179.44;;;17.34;100.00
28167;BME280;15455;53.376;-6.262;2023-08-08T09:54:06;101182.44;;;17.21;100.00
28167;BME280;15455;53.376;-6.262;2023-08-08T09:56:52;101192.31;;;17.11;100.00
28167;BME280;15455;53.376;-6.262;2023-08-08T09:59:39;101200.63;;;16.92;100.00
28167;BME280;15455;53.376;-6.262;2023-08-08T10:02:25;101204.25;;;16.85;100.00
28167;BME280;15455;53.376;-6.262;2023-08-08T10:05:12;101208.78;;;16.80;100.00
28167;BME280;15455;53.376;-6.262;2023-08-08T10:07:59;101202.66;;;16.78;100.00
28167;BME280;15455;53.376;-6.262;2023-08-08T10:10:47;101197.28;;;16.82;100.00
28167;BME280;15455;53.376;-6.262;2023-08-08T10:13:35;101199.84;;;16.89;100.00
28167;BME280;15455;53.376;-6.262;2023-08-08T10:16:22;101204.97;;;16.95;100.00
28167;BME280;15455;53.376;-6.262;2023-08-08T10:19:07;101195.03;;;17.08;100.00
28167;BME280;15455;53.376;-6.262;2023-08-08T10:21:58;101195.66;;;17.19;100.00
28167;BME280;15455;53.376;-6.262;2023-08-08T10:24:47;101201.72;;;17.23;100.00
28167;BME280;15455;53.376;-6.262;2023-08-08T10:27:35;101203.47;;;17.24;100.00
28167;BME280;15455;53.376;-6.262;2023-08-08T10:30:21;101192.06;;;17.22;100.00
28167;BME280;15455;53.376;-6.262;2023-08-08T10:33:24;101204.31;;;17.24;100.00
28167;BME280;15455;53.376;-6.262;2023-08-08T10:36:10;101193.66;;;17.30;100.00
28167;BME280;15455;53.376;-6.262;2023-08-08T10:38:58;101192.47;;;17.42;100.00
28167;BME280;15455;53.376;-6.262;2023-08-08T10:41:50;101197.47;;;17.53;100.00
28167;BME280;15455;53.376;-6.262;2023-08-08T10:44:40;101207.06;;;17.57;100.00
28167;BME280;15455;53.376;-6.262;2023-08-08T10:47:32;101205.19;;;17.62;100.00
28167;BME280;15455;53.376;-6.262;2023-08-08T10:50:22;101191.38;;;17.51;100.00
28167;BME280;15455;53.376;-6.262;2023-08-08T10:53:09;101192.56;;;17.39;100.00
28167;BME280;15455;53.376;-6.262;2023-08-08T10:56:03;101203.53;;;17.21;100.00
28167;BME280;15455;53.376;-6.262;2023-08-08T10:58:49;101204.88;;;16.99;100.00
28167;BME280;15455;53.376;-6.262;2023-08-08T11:01:35;101204.34;;;16.82;100.00
28167;BME280;15455;53.376;-6.262;2023-08-08T11:04:23;101206.38;;;16.67;100.00
28167;BME280;15455;53.376;-6.262;2023-08-08T11:07:09;101210.25;;;16.51;100.00
28167;BME280;15455;53.376;-6.262;2023-08-08T11:09:57;101208.72;;;16.38;100.00
28167;BME280;15455;53.376;-6.262;2023-08-08T11:12:53;101209.78;;;16.27;100.00
28167;BME280;15455;53.376;-6.262;2023-08-08T11:15:38;101204.75;;;16.17;100.00
28167;BME280;15455;53.376;-6.262;2023-08-08T11:18:24;101200.53;;;16.08;100.00
28167;BME280;15455;53.376;-6.262;2023-08-08T11:21:11;101210.31;;;16.00;100.00
28167;BME280;15455;53.376;-6.262;2023-08-08T11:24:03;101221.84;;;15.92;100.00
28167;BME280;15455;53.376;-6.262;2023-08-08T11:26:49;101231.56;;;15.87;100.00
28167;BME280;15455;53.376;-6.262;2023-08-08T11:29:36;101246.59;;;15.82;100.00
28167;BME280;15455;53.376;-6.262;2023-08-08T11:32:24;101240.47;;;15.77;100.00
28167;BME280;15455;53.376;-6.262;2023-08-08T11:35:10;101248.41;;;15.75;100.00
28167;BME280;15455;53.376;-6.262;2023-08-08T11:37:57;101253.72;;;15.72;100.00
28167;BME280;15455;53.376;-6.262;2023-08-08T11:40:44;101258.19;;;15.66;100.00
28167;BME280;15455;53.376;-6.262;2023-08-08T11:43:30;101265.28;;;15.62;100.00
28167;BME280;15455;53.376;-6.262;2023-08-08T11:46:17;101271.44;;;15.61;100.00
28167;BME280;15455;53.376;-6.262;2023-08-08T11:49:06;101268.00;;;15.56;100.00
28167;BME280;15455;53.376;-6.262;2023-08-08T11:51:54;101274.16;;;15.55;100.00
28167;BME280;15455;53.376;-6.262;2023-08-08T11:54:41;101268.84;;;15.58;100.00
28167;BME280;15455;53.376;-6.262;2023-08-08T11:57:27;101271.44;;;15.61;100.00
28167;BME280;15455;53.376;-6.262;2023-08-08T12:00:12;101256.53;;;15.61;100.00
28167;BME280;15455;53.376;-6.262;2023-08-08T12:03:00;101262.59;;;15.65;100.00
28167;BME280;15455;53.376;-6.262;2023-08-08T12:05:47;101264.31;;;15.68;100.00
28167;BME280;15455;53.376;-6.262;2023-08-08T12:08:33;101254.63;;;15.70;100.00
28167;BME280;15455;53.376;-6.262;2023-08-08T12:11:19;101251.06;;;15.74;100.00
28167;BME280;15455;53.376;-6.262;2023-08-08T12:14:10;101249.13;;;15.87;100.00
28167;BME280;15455;53.376;-6.262;2023-08-08T12:16:55;101243.69;;;15.99;100.00
28167;BME280;15455;53.376;-6.262;2023-08-08T12:19:45;101241.69;;;16.10;100.00
28167;BME280;15455;53.376;-6.262;2023-08-08T12:22:32;101241.59;;;16.18;100.00
28167;BME280;15455;53.376;-6.262;2023-08-08T12:25:18;101229.94;;;16.30;100.00
28167;BME280;15455;53.376;-6.262;2023-08-08T12:28:04;101227.09;;;16.42;100.00
28167;BME280;15455;53.376;-6.262;2023-08-08T12:30:50;101222.34;;;16.61;100.00
28167;BME280;15455;53.376;-6.262;2023-08-08T12:33:36;101223.59;;;16.84;100.00
28167;BME280;15455;53.376;-6.262;2023-08-08T12:36:21;101226.53;;;17.14;100.00
28167;BME280;15455;53.376;-6.262;2023-08-08T12:39:07;101210.00;;;17.45;100.00
28167;BME280;15455;53.376;-6.262;2023-08-08T12:41:52;101196.78;;;17.82;100.00
28167;BME280;15455;53.376;-6.262;2023-08-08T12:44:37;101192.41;;;18.16;100.00
28167;BME280;15455;53.376;-6.262;2023-08-08T12:47:23;101180.22;;;18.43;100.00
28167;BME280;15455;53.376;-6.262;2023-08-08T12:50:09;101169.88;;;18.65;100.00
28167;BME280;15455;53.376;-6.262;2023-08-08T12:52:54;101171.28;;;18.77;100.00
28167;BME280;15455;53.376;-6.262;2023-08-08T12:55:40;101164.97;;;18.83;100.00
28167;BME280;15455;53.376;-6.262;2023-08-08T12:58:25;101178.38;;;19.06;100.00
28167;BME280;15455;53.376;-6.262;2023-08-08T13:01:11;101173.94;;;19.35;100.00
28167;BME280;15455;53.376;-6.262;2023-08-08T13:03:57;101173.28;;;19.55;100.00
28167;BME280;15455;53.376;-6.262;2023-08-08T13:07:02;101161.09;;;19.50;100.00
28167;BME280;15455;53.376;-6.262;2023-08-08T13:09:49;101163.88;;;19.47;100.00
28167;BME280;15455;53.376;-6.262;2023-08-08T13:12:35;101161.88;;;19.53;100.00
28167;BME280;15455;53.376;-6.262;2023-08-08T13:15:21;101162.13;;;19.72;100.00
28167;BME280;15455;53.376;-6.262;2023-08-08T13:18:06;101168.13;;;20.04;100.00
28167;BME280;15455;53.376;-6.262;2023-08-08T13:20:52;101178.06;;;20.23;100.00
28167;BME280;15455;53.376;-6.262;2023-08-08T13:23:37;101173.63;;;20.23;100.00
28167;BME280;15455;53.376;-6.262;2023-08-08T13:26:23;101174.72;;;19.92;100.00
28167;BME280;15455;53.376;-6.262;2023-08-08T13:29:09;101162.47;;;19.63;100.00
28167;BME280;15455;53.376;-6.262;2023-08-08T13:31:55;101150.94;;;19.37;100.00
28167;BME280;15455;53.376;-6.262;2023-08-08T13:34:40;101148.47;;;19.04;100.00
28167;BME280;15455;53.376;-6.262;2023-08-08T13:37:25;101155.06;;;18.91;100.00
28167;BME280;15455;53.376;-6.262;2023-08-08T13:40:11;101158.66;;;18.88;100.00
28167;BME280;15455;53.376;-6.262;2023-08-08T13:42:57;101157.69;;;18.91;100.00
28167;BME280;15455;53.376;-6.262;2023-08-08T13:45:42;101159.28;;;18.97;100.00
28167;BME280;15455;53.376;-6.262;2023-08-08T13:48:28;101157.56;;;19.22;100.00
28167;BME280;15455;53.376;-6.262;2023-08-08T13:51:14;101164.69;;;19.49;100.00
28167;BME280;15455;53.376;-6.262;2023-08-08T13:54:00;101162.50;;;19.61;100.00
28167;BME280;15455;53.376;-6.262;2023-08-08T13:56:45;101167.63;;;19.93;100.00
28167;BME280;15455;53.376;-6.262;2023-08-08T13:59:31;101185.13;;;20.47;100.00
28167;BME280;15455;53.376;-6.262;2023-08-08T14:02:16;101176.88;;;21.03;100.00
28167;BME280;15455;53.376;-6.262;2023-08-08T14:05:05;101168.31;;;20.72;100.00
28167;BME280;15455;53.376;-6.262;2023-08-08T14:07:54;101174.88;;;20.38;100.00